Time;durP1;ratioP1;P1;durP2;ratioP2;P2;SDS_P1;SDS_P2;PMS_P1;PMS_P2;Temp;Humidity;BMP_temperature;BMP_pressure;BME280_temperature;BME280_humidity;BME280_pressure;Samples;Min_cycle;Max_cycle;Signal;HPM_P1;HPM_P2
2022/07/01 00:00:58;;;;;;;8.63;4.53;;;;;;;24.30;48.48;94638.88;4143004;28;20089;-66
2022/07/01 00:03:00;;;;;;;10.65;4.70;;;;;;;24.29;48.89;94637.28;4142342;28;20065;-67
2022/07/01 00:05:02;;;;;;;6.60;3.60;;;;;;;24.28;48.93;94644.47;4138267;28;20057;-66
2022/07/01 00:07:04;;;;;;;7.18;3.65;;;;;;;24.23;48.41;94631.03;4144129;28;20089;-64
2022/07/01 00:09:05;;;;;;;5.55;3.60;;;;;;;24.22;48.79;94628.59;4143043;28;20057;-66
2022/07/01 00:11:07;;;;;;;5.50;3.85;;;;;;;24.25;48.44;94636.16;4145707;28;20057;-65
2022/07/01 00:13:09;;;;;;;5.68;3.35;;;;;;;24.21;48.77;94633.13;4142263;28;20053;-68
2022/07/01 00:15:11;;;;;;;7.05;3.65;;;;;;;24.23;49.04;94640.94;4141355;28;20054;-65
2022/07/01 00:17:13;;;;;;;6.15;3.90;;;;;;;24.23;48.68;94652.44;4131504;28;20050;-65
2022/07/01 00:19:16;;;;;;;11.60;4.00;;;;;;;24.28;48.64;94655.19;4138030;28;20104;-64
2022/07/01 00:21:18;;;;;;;5.87;3.90;;;;;;;24.36;48.68;94659.31;4137364;28;20086;-65
2022/07/01 00:23:20;;;;;;;6.38;3.50;;;;;;;24.39;48.51;94652.66;4128254;28;20193;-65
2022/07/01 00:25:22;;;;;;;10.40;4.07;;;;;;;24.45;48.32;94657.03;4141772;28;20525;-65
2022/07/01 00:27:24;;;;;;;5.18;3.97;;;;;;;24.50;48.12;94660.63;4144251;28;20054;-65
2022/07/01 00:29:26;;;;;;;5.55;3.55;;;;;;;24.52;48.28;94660.38;4144005;28;20084;-67
2022/07/01 00:31:28;;;;;;;5.10;3.50;;;;;;;24.53;48.08;94660.13;4145017;28;20378;-67
2022/07/01 00:33:30;;;;;;;5.07;3.30;;;;;;;24.58;47.70;94653.22;4148845;28;20084;-66
2022/07/01 00:35:32;;;;;;;11.02;4.35;;;;;;;24.56;47.97;94658.81;4136318;28;20054;-66
2022/07/01 00:37:34;;;;;;;4.97;3.60;;;;;;;24.56;48.05;94658.00;4145003;28;20180;-65
2022/07/01 00:39:36;;;;;;;8.77;3.70;;;;;;;24.57;47.91;94657.78;4141711;28;20057;-65
2022/07/01 00:41:39;;;;;;;8.80;3.35;;;;;;;24.58;47.86;94654.03;4138592;28;20132;-66
2022/07/01 00:43:42;;;;;;;8.48;3.80;;;;;;;24.61;47.75;94653.53;4143318;28;20074;-66
2022/07/01 00:45:56;;;;;;;5.55;3.38;;;;;;;24.63;47.55;94662.16;4131575;28;20394;-64
2022/07/01 00:47:57;;;;;;;5.10;3.50;;;;;;;24.59;47.57;94654.84;4130842;28;20467;-65
2022/07/01 00:49:59;;;;;;;6.82;3.85;;;;;;;24.53;47.95;94664.69;4139282;28;20050;-66
2022/07/01 00:52:01;;;;;;;9.27;3.58;;;;;;;24.34;48.55;94656.06;4148088;28;20060;-66
2022/07/01 00:54:03;;;;;;;5.07;3.72;;;;;;;24.11;49.23;94654.41;4144791;28;20062;-65
2022/07/01 00:56:05;;;;;;;7.10;4.85;;;;;;;23.78;50.79;94665.91;4135099;28;20140;-66
2022/07/01 00:58:10;;;;;;;10.35;4.88;;;;;;;23.31;52.22;94650.91;4137135;28;20331;-66
2022/07/01 01:00:15;;;;;;;7.32;4.95;;;;;;;22.49;54.85;94663.41;4147177;28;20386;-66
2022/07/01 01:02:17;;;;;;;8.45;4.88;;;;;;;22.02;56.25;94660.72;4144675;28;20052;-66
2022/07/01 01:04:18;;;;;;;6.80;5.00;;;;;;;21.93;56.72;94654.13;4139334;28;20062;-67
2022/07/01 01:06:20;;;;;;;7.82;4.50;;;;;;;22.04;56.68;94663.97;4144746;28;20062;-65
2022/07/01 01:08:23;;;;;;;9.98;5.47;;;;;;;21.98;56.51;94662.22;4141150;28;20041;-66
2022/07/01 01:10:25;;;;;;;7.00;4.53;;;;;;;22.16;55.98;94664.00;4131928;28;20139;-66
2022/07/01 01:12:28;;;;;;;7.90;4.55;;;;;;;22.37;55.97;94673.31;4142770;28;20052;-65
2022/07/01 01:14:29;;;;;;;8.13;5.28;;;;;;;22.61;54.85;94671.41;4151117;28;20054;-65
2022/07/01 01:16:33;;;;;;;10.95;5.45;;;;;;;22.82;54.43;94667.31;4136410;28;20093;-67
2022/07/01 01:18:35;;;;;;;8.85;4.70;;;;;;;22.98;53.93;94662.28;4134433;28;20567;-66
2022/07/01 01:20:38;;;;;;;10.60;4.63;;;;;;;23.12;53.63;94668.19;4133846;28;20066;-65
2022/07/01 01:22:40;;;;;;;8.15;4.70;;;;;;;23.18;53.30;94669.91;4144617;28;20081;-65
2022/07/01 01:24:43;;;;;;;11.38;4.80;;;;;;;23.27;52.97;94665.78;4147111;28;20053;-66
2022/07/01 01:26:45;;;;;;;5.85;4.70;;;;;;;23.33;52.44;94659.50;4131228;28;20052;-65
2022/07/01 01:28:50;;;;;;;8.13;4.90;;;;;;;23.42;52.10;94659.91;4139590;28;20053;-65
2022/07/01 01:30:52;;;;;;;9.13;5.15;;;;;;;23.44;52.04;94652.47;4138619;28;20065;-65
2022/07/01 01:32:54;;;;;;;6.22;4.50;;;;;;;23.44;52.14;94660.50;4135692;28;20047;-65
2022/07/01 01:34:56;;;;;;;5.07;4.50;;;;;;;23.50;52.17;94659.53;4148527;28;20088;-65
2022/07/01 01:36:58;;;;;;;6.45;4.50;;;;;;;23.54;51.58;94663.34;4145941;28;20049;-66
2022/07/01 01:39:03;;;;;;;6.43;4.70;;;;;;;23.52;51.83;94666.25;4147460;28;20485;-66
2022/07/01 01:41:05;;;;;;;8.48;4.38;;;;;;;23.22;52.59;94671.06;4149880;28;20511;-66
2022/07/01 01:43:08;;;;;;;7.20;4.82;;;;;;;22.81;53.59;94671.03;4146643;28;20116;-66
2022/07/01 01:45:10;;;;;;;7.90;4.63;;;;;;;22.49;54.60;94663.41;4147779;28;20436;-66
2022/07/01 01:47:12;;;;;;;15.73;4.63;;;;;;;22.20;55.66;94661.66;4137032;28;20074;-66
2022/07/01 01:49:14;;;;;;;8.93;4.82;;;;;;;22.06;55.74;94669.09;4129756;28;20532;-65
2022/07/01 01:51:18;;;;;;;7.30;4.88;;;;;;;21.91;56.21;94666.88;4131080;28;20105;-65
2022/07/01 01:53:21;;;;;;;9.93;4.90;;;;;;;21.87;56.77;94677.16;4143408;28;20089;-65
2022/07/01 01:55:23;;;;;;;12.52;5.22;;;;;;;21.87;56.79;94679.03;4147673;28;20054;-67
2022/07/01 01:57:25;;;;;;;11.57;5.15;;;;;;;21.86;56.68;94686.22;4136509;28;20505;-66
2022/07/01 01:59:27;;;;;;;7.40;5.30;;;;;;;21.89;56.85;94684.94;4143895;28;20108;-66
2022/07/01 02:01:29;;;;;;;8.60;5.50;;;;;;;21.79;57.03;94674.88;4146471;28;20449;-64
2022/07/01 02:03:30;;;;;;;9.55;4.95;;;;;;;21.88;56.82;94675.34;4144965;28;20049;-65
2022/07/01 02:05:35;;;;;;;5.55;4.30;;;;;;;22.00;56.54;94670.00;4146609;28;20096;-65
2022/07/01 02:07:38;;;;;;;7.80;5.13;;;;;;;22.18;56.05;94669.91;4145853;28;20505;-65
2022/07/01 02:09:40;;;;;;;12.40;5.55;;;;;;;22.33;55.36;94674.81;4145556;28;20042;-65
2022/07/01 02:11:42;;;;;;;7.28;5.03;;;;;;;22.46;55.12;94676.44;4129787;28;20132;-65
2022/07/01 02:13:46;;;;;;;6.55;4.68;;;;;;;22.58;54.98;94681.75;4131603;28;20132;-65
2022/07/01 02:15:49;;;;;;;6.55;4.40;;;;;;;22.63;54.88;94676.53;4141906;28;20050;-66
2022/07/01 02:17:56;;;;;;;6.10;4.60;;;;;;;22.71;54.59;94678.81;4144079;28;20063;-68
2022/07/01 02:19:58;;;;;;;11.13;5.03;;;;;;;22.70;54.57;94688.69;4151972;28;20050;-66
2022/07/01 02:22:00;;;;;;;15.35;5.05;;;;;;;22.62;54.64;94682.91;4147250;28;20060;-65
2022/07/01 02:24:02;;;;;;;9.43;5.10;;;;;;;22.46;55.43;94687.91;4143172;28;20058;-65
2022/07/01 02:26:05;;;;;;;13.57;5.70;;;;;;;22.41;55.38;94685.16;4130487;28;20498;-66
2022/07/01 02:28:07;;;;;;;10.95;5.20;;;;;;;22.35;55.48;94691.41;4129750;28;20091;-65
2022/07/01 02:30:09;;;;;;;9.55;4.90;;;;;;;22.35;55.66;94693.25;4132940;28;20117;-65
2022/07/01 02:32:11;;;;;;;6.68;4.43;;;;;;;22.37;55.43;94696.50;4144939;28;20120;-64
2022/07/01 02:34:13;;;;;;;9.48;4.80;;;;;;;22.43;55.14;94699.03;4144043;28;20504;-65
2022/07/01 02:36:15;;;;;;;11.98;4.90;;;;;;;22.49;55.21;94705.31;4142125;28;20066;-64
2022/07/01 02:38:17;;;;;;;8.40;4.30;;;;;;;22.52;54.92;94704.03;4137551;28;20505;-64
2022/07/01 02:40:18;;;;;;;6.55;4.78;;;;;;;22.55;54.83;94700.91;4146522;28;20077;-67
2022/07/01 02:42:23;;;;;;;9.10;4.90;;;;;;;22.58;54.74;94703.09;4131244;28;20061;-66
2022/07/01 02:44:25;;;;;;;7.90;4.75;;;;;;;22.64;54.81;94715.53;4146306;28;20398;-65
2022/07/01 02:46:26;;;;;;;9.02;4.75;;;;;;;22.64;54.53;94713.66;4145234;28;20163;-63
2022/07/01 02:48:29;;;;;;;6.13;4.32;;;;;;;22.69;54.54;94710.28;4144163;28;20381;-66
2022/07/01 02:50:31;;;;;;;9.98;4.90;;;;;;;22.74;54.64;94717.63;4146652;28;20073;-66
2022/07/01 02:52:34;;;;;;;7.20;4.45;;;;;;;22.74;54.53;94715.75;4131953;28;20694;-65
2022/07/01 02:54:37;;;;;;;6.93;5.13;;;;;;;22.78;54.33;94721.41;4146243;28;20050;-65
2022/07/01 02:56:39;;;;;;;10.32;5.18;;;;;;;22.79;54.00;94715.84;4139774;28;20054;-65
2022/07/01 02:58:41;;;;;;;8.98;4.70;;;;;;;22.81;54.03;94713.75;4129618;28;20050;-66
2022/07/01 03:00:43;;;;;;;6.43;4.15;;;;;;;22.83;54.12;94717.00;4140985;28;20620;-65
2022/07/01 03:02:45;;;;;;;6.63;5.00;;;;;;;22.85;53.76;94725.59;4129659;28;20124;-65
2022/07/01 03:04:48;;;;;;;5.88;4.63;;;;;;;22.84;54.06;94726.66;4141930;28;20580;-65
2022/07/01 03:06:49;;;;;;;16.67;5.07;;;;;;;22.86;54.15;94719.19;4141096;28;20311;-65
2022/07/01 03:08:51;;;;;;;5.80;4.47;;;;;;;22.90;53.73;94725.69;4145317;28;20064;-64
2022/07/01 03:10:53;;;;;;;7.78;5.25;;;;;;;22.92;54.00;94719.31;4131791;28;20058;-67
2022/07/01 03:12:55;;;;;;;9.20;4.93;;;;;;;22.89;53.74;94726.75;4146196;28;20056;-66
2022/07/01 03:14:59;;;;;;;7.00;4.95;;;;;;;22.93;54.14;94734.28;4139846;28;20054;-66
2022/07/01 03:17:01;;;;;;;10.25;4.88;;;;;;;22.87;54.05;94736.84;4142865;28;20046;-65
2022/07/01 03:19:03;;;;;;;10.95;4.93;;;;;;;22.80;54.35;94738.84;4157858;28;20048;-66
2022/07/01 03:21:05;;;;;;;7.55;5.05;;;;;;;22.74;54.35;94741.66;4139577;28;20112;-65
2022/07/01 03:23:06;;;;;;;7.40;4.80;;;;;;;22.72;54.70;94738.41;4129543;28;20065;-67
2022/07/01 03:25:09;;;;;;;10.73;5.22;;;;;;;22.80;54.29;94733.50;4140453;28;20513;-65
2022/07/01 03:27:11;;;;;;;10.02;4.72;;;;;;;22.86;54.50;94739.75;4144576;28;20136;-66
2022/07/01 03:29:12;;;;;;;8.82;4.93;;;;;;;22.90;54.56;94739.03;4129196;28;20047;-65
2022/07/01 03:31:14;;;;;;;11.13;5.10;;;;;;;22.97;54.18;94735.44;4129132;28;20058;-65
2022/07/01 03:33:16;;;;;;;6.90;4.90;;;;;;;23.02;53.45;94735.59;4127748;28;20497;-66
2022/07/01 03:35:38;;;;;;;7.68;5.18;;;;;;;23.07;53.68;94741.84;4129809;28;20054;-66
2022/07/01 03:37:41;;;;;;;12.73;5.70;;;;;;;23.08;53.68;94737.28;4141959;28;20392;-65
2022/07/01 03:39:43;;;;;;;9.57;5.40;;;;;;;23.04;53.95;94750.34;4135019;28;20045;-66
2022/07/01 03:41:45;;;;;;;9.82;4.90;;;;;;;23.02;54.26;94743.63;4135395;28;20069;-66
2022/07/01 03:43:47;;;;;;;8.30;5.10;;;;;;;23.05;53.77;94740.44;4140558;28;20077;-65
2022/07/01 03:45:49;;;;;;;8.48;5.18;;;;;;;23.11;53.30;94739.50;4128346;28;20062;-66
2022/07/01 03:47:51;;;;;;;9.48;5.50;;;;;;;23.18;53.00;94740.19;4131604;28;20053;-65
2022/07/01 03:49:53;;;;;;;7.10;5.13;;;;;;;23.25;52.80;94737.38;4143845;28;20424;-65
2022/07/01 03:51:54;;;;;;;7.97;5.05;;;;;;;23.31;52.67;94733.75;4135359;28;20054;-65
2022/07/01 03:56:17;;;;;;;11.88;5.70;;;;;;;23.40;52.34;94745.69;4131891;28;20042;-65
2022/07/01 03:58:19;;;;;;;7.10;5.18;;;;;;;23.44;51.98;94744.16;4144293;28;20064;-64
2022/07/01 04:00:20;;;;;;;6.80;4.70;;;;;;;23.45;52.20;94742.31;4139046;28;20054;-65
2022/07/01 04:02:22;;;;;;;14.02;5.20;;;;;;;23.52;52.28;94743.78;4138480;28;20456;-66
2022/07/01 04:04:26;;;;;;;6.80;4.88;;;;;;;23.56;52.15;94744.13;4144222;28;20682;-64
2022/07/01 04:06:28;;;;;;;8.13;5.10;;;;;;;23.66;51.51;94752.34;4137563;28;20549;-66
2022/07/01 04:08:30;;;;;;;11.85;5.55;;;;;;;23.70;51.48;94748.16;4143505;28;20077;-65
2022/07/01 04:10:33;;;;;;;8.60;5.18;;;;;;;23.76;51.43;94748.25;4141197;28;20524;-64
2022/07/01 04:12:35;;;;;;;8.85;4.75;;;;;;;23.77;51.23;94749.88;4134168;28;20046;-65
2022/07/01 04:14:37;;;;;;;9.15;5.15;;;;;;;23.78;51.31;94751.50;4145133;28;20046;-66
2022/07/01 04:16:39;;;;;;;6.40;4.93;;;;;;;23.78;51.57;94754.19;4132713;28;20053;-63
2022/07/01 04:18:41;;;;;;;7.88;4.93;;;;;;;23.50;52.23;94758.47;4153287;28;20053;-66
2022/07/01 04:22:32;;;;;;;11.30;5.28;;;;;;;23.09;52.90;94761.13;4141022;28;20173;-64
2022/07/01 04:23:05;;;;;;;10.48;5.45;;;;;;;22.65;54.36;94758.00;4137303;28;20046;-64
2022/07/01 04:25:07;;;;;;;9.88;5.78;;;;;;;22.39;54.90;94764.63;4144501;28;20567;-67
2022/07/01 04:27:09;;;;;;;9.95;6.00;;;;;;;22.38;55.66;94762.19;4131026;28;20058;-65
2022/07/01 04:29:11;;;;;;;7.97;5.68;;;;;;;22.39;55.72;94761.13;4128143;28;20441;-66
2022/07/01 04:31:13;;;;;;;7.78;5.35;;;;;;;22.40;55.68;94760.91;4128052;28;20060;-65
2022/07/01 04:33:14;;;;;;;12.05;5.53;;;;;;;22.53;55.59;94759.88;4135451;28;20547;-65
2022/07/01 04:35:16;;;;;;;11.02;5.85;;;;;;;22.63;54.94;94757.44;4133746;28;20054;-66
2022/07/01 04:37:19;;;;;;;11.80;5.50;;;;;;;22.67;55.06;94771.13;4142487;28;20116;-68
2022/07/01 04:39:21;;;;;;;7.23;4.93;;;;;;;22.68;54.85;94770.88;4127829;28;20073;-65
2022/07/01 04:43:43;;;;;;;11.90;5.95;;;;;;;23.03;53.98;94758.56;4132181;28;20446;-64
2022/07/01 04:45:45;;;;;;;13.57;5.40;;;;;;;23.15;53.68;94756.69;4141821;28;20104;-67
2022/07/01 04:47:47;;;;;;;8.65;5.88;;;;;;;23.28;53.65;94761.78;4142637;28;20556;-65
2022/07/01 04:49:49;;;;;;;8.07;5.72;;;;;;;23.36;53.52;94762.44;4138360;28;20576;-65
2022/07/01 04:51:51;;;;;;;9.52;6.43;;;;;;;23.30;53.61;94757.00;4136095;28;20084;-65
2022/07/01 04:53:53;;;;;;;13.48;6.20;;;;;;;23.37;53.52;94769.44;4133097;28;20061;-66
2022/07/01 04:55:55;;;;;;;11.27;6.57;;;;;;;23.33;53.57;94768.28;4127013;28;20843;-65
2022/07/01 04:57:56;;;;;;;13.50;5.82;;;;;;;23.41;53.43;94762.56;4130757;28;20597;-66
2022/07/01 04:59:59;;;;;;;11.68;6.70;;;;;;;23.55;53.05;94758.53;4138813;28;20050;-65
2022/07/01 05:02:01;;;;;;;11.15;6.28;;;;;;;23.62;52.75;94767.25;4136732;28;20050;-67
2022/07/01 05:04:03;;;;;;;13.48;6.45;;;;;;;23.67;52.84;94758.50;4143098;28;20056;-66
2022/07/01 05:06:05;;;;;;;11.23;6.55;;;;;;;23.72;52.61;94758.59;4135652;28;20650;-65
2022/07/01 05:10:28;;;;;;;15.52;6.50;;;;;;;23.66;53.14;94762.22;4144714;28;20549;-66
2022/07/01 05:12:30;;;;;;;11.80;6.70;;;;;;;23.62;53.10;94767.25;4143653;28;20128;-68
2022/07/01 05:14:33;;;;;;;10.90;6.57;;;;;;;23.56;53.66;94765.53;4136777;28;20086;-65
2022/07/01 05:16:36;;;;;;;17.08;6.80;;;;;;;23.58;53.34;94765.28;4138725;28;20049;-65
2022/07/01 05:23:19;;;;;;;9.27;6.20;;;;;;;23.78;52.97;94760.34;4133926;28;20065;-66
2022/07/01 05:25:20;;;;;;;14.80;6.43;;;;;;;23.81;52.70;94761.72;4128046;28;20059;-69
2022/07/01 05:27:24;;;;;;;13.82;6.40;;;;;;;23.90;52.59;94769.13;4141995;28;20606;-64
2022/07/01 05:29:27;;;;;;;8.93;6.43;;;;;;;24.00;52.32;94763.13;4139879;28;20078;-65
2022/07/01 05:31:28;;;;;;;9.60;5.50;;;;;;;24.05;52.20;94768.59;4137984;28;20112;-64
2022/07/01 05:33:30;;;;;;;14.65;6.82;;;;;;;24.11;51.51;94767.63;4135418;28;20050;-65
2022/07/01 05:35:32;;;;;;;10.88;5.88;;;;;;;24.23;51.95;94761.38;4130955;28;20593;-65
2022/07/01 05:37:34;;;;;;;11.70;5.72;;;;;;;24.36;51.48;94766.41;4130722;28;20477;-65
2022/07/01 05:39:36;;;;;;;8.80;6.28;;;;;;;24.47;51.25;94770.88;4146493;28;20054;-66
2022/07/01 05:41:46;;;;;;;8.63;5.63;;;;;;;24.61;50.74;94767.88;4146364;28;20056;-66
2022/07/01 05:43:48;;;;;;;10.05;5.70;;;;;;;24.77;50.24;94769.75;4134058;28;20066;-65
2022/07/01 05:45:49;;;;;;;14.38;6.18;;;;;;;24.88;49.84;94759.97;4131492;28;20054;-67
2022/07/01 05:47:51;;;;;;;10.50;5.95;;;;;;;24.99;49.83;94763.59;4142371;28;20058;-65
2022/07/01 05:49:53;;;;;;;11.55;6.43;;;;;;;24.95;50.03;94757.91;4135782;28;20046;-64
2022/07/01 05:51:55;;;;;;;10.45;6.35;;;;;;;24.74;50.49;94767.56;4147602;28;20050;-66
2022/07/01 05:53:57;;;;;;;15.38;6.43;;;;;;;24.60;50.70;94761.72;4134789;28;20051;-66
2022/07/01 05:56:00;;;;;;;14.48;6.55;;;;;;;24.56;50.94;94765.13;4127332;28;20069;-67
2022/07/01 05:58:02;;;;;;;12.32;7.03;;;;;;;24.67;51.08;94762.38;4134343;28;20046;-66
2022/07/01 06:00:04;;;;;;;8.57;6.28;;;;;;;24.73;50.81;94761.38;4146877;28;20049;-64
2022/07/01 06:02:06;;;;;;;7.85;6.03;;;;;;;24.76;50.77;94765.44;4139496;28;20046;-66
2022/07/01 06:04:08;;;;;;;13.02;7.10;;;;;;;24.76;50.32;94767.28;4139503;28;20111;-65
2022/07/01 06:06:10;;;;;;;13.60;6.00;;;;;;;24.65;50.17;94756.47;4140193;28;20065;-66
2022/07/01 06:08:12;;;;;;;10.75;6.35;;;;;;;24.63;50.55;94763.09;4138164;28;20050;-65
2022/07/01 06:10:14;;;;;;;11.27;6.20;;;;;;;24.58;50.72;94765.72;4143796;28;20433;-66
2022/07/01 06:12:16;;;;;;;11.23;6.28;;;;;;;24.46;51.46;94766.59;4129172;28;20069;-67
2022/07/01 06:14:18;;;;;;;16.73;6.63;;;;;;;24.42;50.93;94770.78;4130813;28;20285;-65
2022/07/01 06:16:20;;;;;;;9.63;6.20;;;;;;;24.58;50.75;94771.88;4138434;28;20054;-65
2022/07/01 06:18:22;;;;;;;14.63;5.90;;;;;;;24.81;50.46;94770.88;4157007;28;20061;-65
2022/07/01 06:20:24;;;;;;;10.70;6.50;;;;;;;24.86;50.13;94768.25;4147491;28;20058;-67
2022/07/01 06:22:26;;;;;;;14.43;7.15;;;;;;;25.00;50.12;94767.91;4130488;28;20581;-64
2022/07/01 06:24:28;;;;;;;8.73;6.40;;;;;;;25.22;49.91;94776.00;4129899;28;20061;-65
2022/07/01 06:26:30;;;;;;;15.55;7.45;;;;;;;25.12;49.83;94774.78;4130465;28;20051;-65
2022/07/01 06:28:31;;;;;;;13.30;7.10;;;;;;;25.14;50.08;94777.22;4141056;28;20115;-66
2022/07/01 06:30:33;;;;;;;14.90;7.55;;;;;;;25.19;49.82;94774.63;4140590;28;20053;-67
2022/07/01 06:32:35;;;;;;;13.95;7.57;;;;;;;25.30;49.41;94776.38;4130924;28;20061;-65
2022/07/01 06:34:38;;;;;;;13.23;7.50;;;;;;;25.37;49.48;94775.38;4141265;28;20141;-64
2022/07/01 06:36:41;;;;;;;12.93;7.68;;;;;;;25.38;49.11;94775.13;4138544;28;20132;-66
2022/07/01 06:38:42;;;;;;;12.23;7.55;;;;;;;25.32;49.43;94774.25;4135816;28;20149;-67
2022/07/01 06:41:26;;;;;;;11.70;7.18;;;;;;;25.29;49.31;94765.91;4142573;28;20058;-64
2022/07/01 06:43:06;;;;;;;10.77;7.20;;;;;;;25.38;49.69;94772.44;4138142;28;20073;-65
2022/07/01 06:45:08;;;;;;;13.32;6.55;;;;;;;25.58;48.61;94769.19;4131962;28;20486;-66
2022/07/01 06:47:10;;;;;;;13.27;6.50;;;;;;;25.60;49.02;94768.94;4136042;28;20065;-65
2022/07/01 06:49:12;;;;;;;13.18;6.50;;;;;;;25.66;48.68;94766.09;4129150;28;20049;-66
2022/07/01 06:51:14;;;;;;;11.25;6.50;;;;;;;25.79;48.65;94769.41;4143346;28;20144;-67
2022/07/01 06:53:16;;;;;;;14.32;7.13;;;;;;;25.73;48.81;94768.56;4141290;28;20141;-65
2022/07/01 06:55:17;;;;;;;15.52;7.22;;;;;;;25.54;49.64;94762.72;4131163;28;20046;-65
2022/07/01 06:57:19;;;;;;;11.48;6.90;;;;;;;25.65;49.91;94764.44;4136143;28;20462;-66
2022/07/01 06:59:21;;;;;;;8.07;6.15;;;;;;;25.88;49.68;94759.88;4129531;28;20450;-66
2022/07/01 07:01:23;;;;;;;12.25;7.25;;;;;;;25.96;48.88;94762.09;4142077;28;20437;-66
2022/07/01 07:03:26;;;;;;;17.25;7.78;;;;;;;26.01;49.42;94764.84;4128458;28;20065;-66
2022/07/01 07:05:30;;;;;;;15.32;7.95;;;;;;;26.10;49.10;94767.88;4136801;28;20057;-66
2022/07/01 07:07:32;;;;;;;17.40;7.78;;;;;;;26.24;48.69;94757.53;4146214;28;20555;-66
2022/07/01 07:09:34;;;;;;;15.32;6.97;;;;;;;26.41;47.85;94762.75;4143969;28;20141;-66
2022/07/01 07:11:37;;;;;;;11.03;7.30;;;;;;;26.55;47.50;94767.44;4132337;28;20061;-66
2022/07/01 07:13:38;;;;;;;12.85;6.97;;;;;;;26.69;47.21;94769.72;4140954;28;20449;-65
2022/07/01 07:15:41;;;;;;;16.98;7.22;;;;;;;26.64;47.82;94769.69;4156886;28;20050;-66
2022/07/01 07:17:43;;;;;;;15.70;7.70;;;;;;;26.77;47.08;94769.25;4138637;28;20054;-66
2022/07/01 07:19:45;;;;;;;15.77;7.50;;;;;;;26.88;47.29;94770.91;4129414;28;20124;-65
2022/07/01 07:21:47;;;;;;;10.70;7.03;;;;;;;27.03;46.87;94774.78;4141258;28;20066;-64
2022/07/01 07:23:48;;;;;;;15.63;7.22;;;;;;;27.17;46.65;94781.31;4144568;28;20054;-66
2022/07/01 07:25:50;;;;;;;11.30;7.10;;;;;;;27.29;46.29;94773.84;4145814;28;20054;-66
2022/07/01 07:27:52;;;;;;;14.65;7.57;;;;;;;27.42;45.87;94774.44;4139776;28;20054;-64
2022/07/01 07:29:54;;;;;;;20.02;7.90;;;;;;;27.04;46.39;94771.00;4138156;28;20061;-67
2022/07/01 07:31:55;;;;;;;16.60;8.63;;;;;;;26.65;47.06;94768.59;4127414;28;20062;-67
2022/07/01 07:33:57;;;;;;;13.85;7.85;;;;;;;26.52;47.09;94769.81;4128081;28;20057;-65
2022/07/01 07:35:59;;;;;;;23.98;11.95;;;;;;;26.51;47.53;94774.41;4132123;28;20050;-66
2022/07/01 07:38:01;;;;;;;15.63;8.45;;;;;;;26.66;47.13;94770.25;4144972;28;20474;-66
2022/07/01 07:40:06;;;;;;;18.58;9.63;;;;;;;26.63;47.06;94773.44;4137641;28;20046;-66
2022/07/01 07:42:08;;;;;;;14.20;7.55;;;;;;;26.76;46.33;94770.31;4140472;28;20062;-65
2022/07/01 07:44:09;;;;;;;14.35;7.00;;;;;;;26.48;47.10;94766.88;4158120;28;20087;-66
2022/07/01 07:46:11;;;;;;;12.13;7.25;;;;;;;26.37;47.14;94762.47;4140982;28;20061;-65
2022/07/01 07:48:13;;;;;;;12.60;7.15;;;;;;;26.63;46.17;94760.81;4134439;28;20505;-64
2022/07/01 07:50:15;;;;;;;12.15;6.90;;;;;;;26.91;45.68;94761.50;4144643;28;20080;-66
2022/07/01 07:52:17;;;;;;;11.23;6.72;;;;;;;27.16;45.86;94760.84;4145204;28;20478;-66
2022/07/01 07:54:18;;;;;;;22.33;7.35;;;;;;;27.37;45.55;94764.47;4129707;28;20109;-65
2022/07/01 07:56:20;;;;;;;15.98;6.88;;;;;;;27.58;44.87;94760.00;4127636;28;20449;-66
2022/07/01 07:58:22;;;;;;;13.45;6.95;;;;;;;27.58;44.72;94765.38;4135398;28;20072;-65
2022/07/01 08:00:24;;;;;;;13.10;7.28;;;;;;;27.36;44.81;94770.91;4135666;28;20062;-66
2022/07/01 08:02:26;;;;;;;13.40;6.65;;;;;;;27.35;45.15;94770.13;4139509;28;20068;-65
2022/07/01 08:04:28;;;;;;;13.85;7.43;;;;;;;27.41;45.02;94759.41;4143344;28;20489;-66
2022/07/01 08:06:30;;;;;;;13.52;7.28;;;;;;;27.57;45.04;94758.38;4138150;28;20529;-64
2022/07/01 08:08:32;;;;;;;18.45;7.60;;;;;;;27.69;44.27;94758.16;4143938;28;20064;-65
2022/07/01 08:10:34;;;;;;;9.77;7.43;;;;;;;27.71;44.09;94754.09;4140976;28;20050;-66
2022/07/01 08:12:36;;;;;;;12.45;7.38;;;;;;;27.89;44.48;94757.41;4130296;28;20058;-65
2022/07/01 08:14:38;;;;;;;17.35;7.82;;;;;;;28.00;44.19;94755.53;4128889;28;20182;-65
2022/07/01 08:16:41;;;;;;;14.88;7.00;;;;;;;28.07;44.38;94751.53;4136483;28;20058;-64
2022/07/01 08:18:43;;;;;;;12.38;7.50;;;;;;;28.24;44.05;94750.44;4129984;28;20054;-67
2022/07/01 08:20:46;;;;;;;14.02;7.10;;;;;;;28.39;43.07;94742.34;4129279;28;20054;-65
2022/07/01 08:22:48;;;;;;;12.85;7.43;;;;;;;28.42;42.62;94741.03;4138591;28;20078;-66
2022/07/01 08:24:50;;;;;;;12.32;6.55;;;;;;;28.32;43.16;94742.63;4135042;28;20390;-68
2022/07/01 08:26:52;;;;;;;20.55;7.07;;;;;;;28.27;43.71;94739.16;4144858;28;20054;-66
2022/07/01 08:28:53;;;;;;;12.93;6.70;;;;;;;28.47;43.27;94739.13;4144497;28;20507;-68
2022/07/01 08:30:55;;;;;;;21.40;7.28;;;;;;;28.70;42.49;94742.38;4127562;28;20097;-66
2022/07/01 08:32:57;;;;;;;16.70;6.60;;;;;;;28.85;42.26;94733.47;4130365;28;20057;-66
2022/07/01 08:35:00;;;;;;;18.88;6.82;;;;;;;28.63;41.47;94741.84;4144667;28;20472;-66
2022/07/01 08:37:03;;;;;;;20.40;7.80;;;;;;;28.65;42.53;94740.47;4144295;28;20461;-65
2022/07/01 08:39:05;;;;;;;12.77;7.50;;;;;;;28.71;41.97;94733.22;4142879;28;20050;-66
2022/07/01 08:41:07;;;;;;;16.13;7.05;;;;;;;28.82;41.68;94734.78;4129177;28;20092;-66
2022/07/01 08:43:09;;;;;;;15.63;6.88;;;;;;;28.68;41.79;94734.56;4134723;28;20049;-65
2022/07/01 08:45:10;;;;;;;12.02;5.85;;;;;;;28.61;41.24;94733.22;4135142;28;20053;-66
2022/07/01 08:47:13;;;;;;;14.70;7.30;;;;;;;28.56;41.47;94737.53;4127592;28;20054;-66
2022/07/01 08:49:16;;;;;;;10.57;5.47;;;;;;;28.52;41.08;94733.78;4126230;28;20064;-67
2022/07/01 08:51:18;;;;;;;10.73;6.27;;;;;;;28.53;41.33;94740.78;4126936;28;20100;-66
2022/07/01 08:53:20;;;;;;;7.82;5.35;;;;;;;28.47;41.11;94738.31;4126477;28;20585;-67
2022/07/01 08:55:22;;;;;;;13.50;6.43;;;;;;;28.52;41.50;94730.25;4128279;28;20058;-65
2022/07/01 08:57:24;;;;;;;10.98;6.43;;;;;;;28.61;41.21;94738.59;4127504;28;20054;-65
2022/07/01 08:59:26;;;;;;;9.50;5.47;;;;;;;28.66;40.84;94738.63;4127597;28;20054;-64
2022/07/01 09:01:29;;;;;;;9.13;5.70;;;;;;;28.63;41.07;94741.84;4131171;28;20049;-64
2022/07/01 09:03:30;;;;;;;8.77;5.60;;;;;;;28.63;40.23;94737.28;4135849;28;20112;-66
2022/07/01 09:05:32;;;;;;;11.25;5.10;;;;;;;28.78;39.90;94744.50;4136388;28;20089;-63
2022/07/01 09:07:34;;;;;;;12.20;6.18;;;;;;;28.92;40.13;94739.38;4140446;28;20180;-66
2022/07/01 09:09:42;;;;;;;11.82;5.85;;;;;;;28.84;40.10;94732.63;4141092;28;20077;-64
2022/07/01 09:11:55;;;;;;;12.75;6.00;;;;;;;28.95;40.29;94738.81;4146782;28;20053;-66
2022/07/01 09:14:09;;;;;;;11.85;5.38;;;;;;;29.15;39.90;94728.00;4134931;28;20386;-67
2022/07/01 09:16:15;;;;;;;6.88;5.32;;;;;;;29.38;39.75;94726.56;4140276;28;20401;-65
2022/07/01 09:18:18;;;;;;;8.32;5.70;;;;;;;29.58;39.35;94732.97;4141588;28;20116;-68
2022/07/01 09:20:36;;;;;;;8.13;5.63;;;;;;;29.67;38.49;94733.97;4133797;28;20085;-66
2022/07/01 09:22:38;;;;;;;11.80;5.95;;;;;;;29.58;38.72;94730.25;4131252;28;20085;-65
2022/07/01 09:24:43;;;;;;;8.88;5.15;;;;;;;29.46;38.11;94732.47;4129845;28;20576;-65
2022/07/01 09:26:55;;;;;;;6.57;5.10;;;;;;;29.63;38.46;94732.91;4141019;28;20123;-68
2022/07/01 09:28:59;;;;;;;11.82;5.30;;;;;;;29.70;38.16;94724.53;4145354;28;20171;-66
2022/07/01 09:31:01;;;;;;;7.00;4.70;;;;;;;29.69;37.98;94734.53;4142286;28;20088;-66
2022/07/01 09:33:10;;;;;;;7.55;4.80;;;;;;;29.75;37.62;94735.31;4139137;28;20045;-65
2022/07/01 09:35:22;;;;;;;6.93;4.68;;;;;;;29.96;37.03;94725.19;4131405;28;20082;-65
2022/07/01 09:37:25;;;;;;;13.75;5.10;;;;;;;29.96;36.54;94725.19;4131070;28;20051;-67
2022/07/01 09:39:26;;;;;;;7.43;5.15;;;;;;;29.75;36.30;94722.63;4147116;28;20046;-65
2022/07/01 09:41:37;;;;;;;8.13;4.68;;;;;;;29.85;36.08;94718.25;4139504;28;20125;-67
2022/07/01 09:43:39;;;;;;;9.38;4.47;;;;;;;30.06;35.98;94719.72;4141395;28;20058;-65
2022/07/01 09:45:57;;;;;;;11.02;4.70;;;;;;;30.29;33.61;94722.84;4134297;28;20636;-66